Time;durP1;ratioP1;P1;durP2;ratioP2;P2;SDS_P1;SDS_P2;PMS_P1;PMS_P2;Temp;Humidity;BMP_temperature;BMP_pressure;BME280_temperature;BME280_humidity;BME280_pressure;Samples;Min_cycle;Max_cycle;Signal;HPM_P1;HPM_P2
2023/06/26 00:02:16;;;;;;;16.90;11.25;;;22.40;92.90;;;;;;5052674;28;20061;-53
2023/06/26 00:04:43;;;;;;;11.95;10.73;;;22.40;93.10;;;;;;5068837;28;20032;-51
2023/06/26 00:07:08;;;;;;;11.45;10.35;;;22.30;93.30;;;;;;5070912;28;20041;-53
2023/06/26 00:09:34;;;;;;;;;;;22.30;93.50;;;;;;5055385;28;20548;-54
2023/06/26 00:12:00;;;;;;;12.52;11.43;;;22.20;93.90;;;;;;5052584;28;19927;-56
2023/06/26 00:14:25;;;;;;;12.57;11.40;;;22.20;93.80;;;;;;5066282;28;20039;-52
2023/06/26 00:16:51;;;;;;;13.52;12.13;;;22.20;94.10;;;;;;5069930;28;20596;-51
2023/06/26 00:19:17;;;;;;;;;;;22.10;94.30;;;;;;5068926;28;20033;-52
2023/06/26 00:21:47;;;;;;;12.60;11.35;;;22.10;94.80;;;;;;5068485;28;19948;-52
2023/06/26 00:24:17;;;;;;;13.07;11.88;;;22.00;94.60;;;;;;5058380;28;20092;-52
2023/06/26 00:26:43;;;;;;;13.80;12.60;;;22.00;94.80;;;;;;5051973;28;20056;-54
2023/06/26 00:29:09;;;;;;;12.07;10.85;;;22.00;95.00;;;;;;5054655;28;20179;-54
2023/06/26 00:31:35;;;;;;;;;;;22.00;95.30;;;;;;5067889;28;20108;-52
2023/06/26 00:34:01;;;;;;;13.40;12.02;;;22.00;95.60;;;;;;5058437;28;19977;-52
2023/06/26 00:36:27;;;;;;;21.35;12.30;;;21.90;95.40;;;;;;5051452;28;20060;-55
2023/06/26 00:38:52;;;;;;;;;;;21.90;95.60;;;;;;5061353;28;20029;-53
2023/06/26 00:41:18;;;;;;;13.95;12.65;;;21.90;96.10;;;;;;5051555;28;19928;-51
2023/06/26 00:43:44;;;;;;;14.43;11.93;;;21.90;95.80;;;;;;5062586;28;20033;-51
2023/06/26 00:46:11;;;;;;;;;;;21.80;96.00;;;;;;5054419;28;20032;-51
2023/06/26 00:48:38;;;;;;;;;;;21.80;96.70;;;;;;5055291;28;19920;-52
2023/06/26 00:51:03;;;;;;;11.80;10.80;;;21.80;96.80;;;;;;5069418;28;19927;-52
2023/06/26 00:53:31;;;;;;;13.57;12.27;;;21.70;96.50;;;;;;5066653;28;20025;-52
2023/06/26 00:55:56;;;;;;;16.70;12.48;;;21.70;96.60;;;;;;5052601;28;20040;-52
2023/06/26 00:58:23;;;;;;;;;;;21.70;96.70;;;;;;5051332;28;20029;-55
2023/06/26 01:00:49;;;;;;;13.88;12.48;;;21.70;97.40;;;;;;5067673;28;20380;-52
2023/06/26 01:03:14;;;;;;;;;;;21.70;97.10;;;;;;5069505;28;20036;-52
2023/06/26 01:05:40;;;;;;;13.82;12.30;;;21.70;97.60;;;;;;5058527;28;19923;-54
2023/06/26 01:08:07;;;;;;;13.38;12.07;;;21.60;97.20;;;;;;5059305;28;20044;-53
2023/06/26 01:10:32;;;;;;;13.35;12.15;;;21.60;97.50;;;;;;5059982;28;20041;-54
2023/06/26 01:12:58;;;;;;;;;;;21.60;97.70;;;;;;5051001;28;20033;-51
2023/06/26 01:15:24;;;;;;;13.23;11.55;;;21.60;98.00;;;;;;5057407;28;19920;-53
2023/06/26 01:17:51;;;;;;;13.18;11.88;;;21.50;97.90;;;;;;5068445;28;20045;-51
2023/06/26 01:20:18;;;;;;;20.88;12.80;;;21.50;98.10;;;;;;5055373;28;20690;-51
2023/06/26 01:23:06;;;;;;;12.68;11.52;;;21.50;98.30;;;;;;5050907;28;20037;-52
2023/06/26 01:25:38;;;;;;;12.68;11.43;;;21.40;98.60;;;;;;5055911;28;20385;-54
2023/06/26 01:28:07;;;;;;;14.27;12.35;;;21.40;98.70;;;;;;5051393;28;20094;-52
2023/06/26 01:30:36;;;;;;;13.43;12.20;;;21.40;98.90;;;;;;5064134;28;20203;-51
2023/06/26 01:33:03;;;;;;;14.73;12.75;;;21.30;99.20;;;;;;5068548;28;20104;-53
2023/06/26 01:35:29;;;;;;;13.68;12.20;;;21.30;99.30;;;;;;5066790;28;20033;-52
2023/06/26 01:38:10;;;;;;;;;;;21.30;99.60;;;;;;5065991;28;20066;-53
2023/06/26 01:40:36;;;;;;;13.73;12.43;;;21.20;99.90;;;;;;5055162;28;19916;-52
2023/06/26 01:43:01;;;;;;;;;;;21.30;99.70;;;;;;5059331;28;20112;-51
2023/06/26 01:45:32;;;;;;;13.52;12.20;;;21.30;99.90;;;;;;5054812;28;19917;-52
2023/06/26 01:48:01;;;;;;;14.80;12.48;;;21.30;99.80;;;;;;5048808;28;20041;-52
2023/06/26 01:50:30;;;;;;;13.88;12.55;;;21.30;99.90;;;;;;5059191;28;20042;-54
2023/06/26 01:53:04;;;;;;;14.82;12.77;;;21.30;99.80;;;;;;5067210;28;20115;-52
2023/06/26 01:55:39;;;;;;;14.57;13.18;;;21.30;99.90;;;;;;5057498;28;20036;-51
2023/06/26 01:58:06;;;;;;;13.32;12.07;;;21.30;99.90;;;;;;5050713;28;20133;-56
2023/06/26 02:00:32;;;;;;;14.27;12.88;;;21.30;99.90;;;;;;5060137;28;20040;-52
2023/06/26 02:02:57;;;;;;;;;;;21.30;99.90;;;;;;5064041;28;20033;-52
2023/06/26 02:05:23;;;;;;;14.52;13.00;;;21.30;99.90;;;;;;5057487;28;20421;-55
2023/06/26 02:07:49;;;;;;;15.00;12.48;;;21.20;99.90;;;;;;5064337;28;20123;-52
2023/06/26 02:10:15;;;;;;;;;;;21.20;99.90;;;;;;5054791;28;20044;-54
2023/06/26 02:12:40;;;;;;;14.35;13.05;;;21.10;99.90;;;;;;5054618;28;20377;-52
2023/06/26 02:15:06;;;;;;;;;;;21.00;99.90;;;;;;5058501;28;20059;-51
2023/06/26 02:17:32;;;;;;;15.13;13.20;;;21.00;99.90;;;;;;5048093;28;19921;-52
2023/06/26 02:19:57;;;;;;;;;;;21.00;99.90;;;;;;5055460;28;20048;-54
2023/06/26 02:22:23;;;;;;;13.20;11.90;;;21.00;99.90;;;;;;5068069;28;20140;-51
2023/06/26 02:24:48;;;;;;;;;;;21.00;99.90;;;;;;5063688;28;20029;-52
2023/06/26 02:27:14;;;;;;;14.73;13.43;;;21.00;99.90;;;;;;5049696;28;19920;-55
2023/06/26 02:29:40;;;;;;;;;;;21.00;99.90;;;;;;5052606;28;20047;-54
2023/06/26 02:32:06;;;;;;;17.48;13.02;;;20.90;99.90;;;;;;5066721;28;20240;-51
2023/06/26 02:34:31;;;;;;;;;;;20.90;99.90;;;;;;5065528;28;20342;-51
2023/06/26 02:36:58;;;;;;;21.13;13.23;;;20.90;99.90;;;;;;5048942;28;19935;-51
2023/06/26 02:39:24;;;;;;;16.20;12.55;;;20.90;99.90;;;;;;5049739;28;20041;-51
2023/06/26 02:41:49;;;;;;;;;;;20.90;99.90;;;;;;5066927;28;20041;-51
2023/06/26 02:44:15;;;;;;;13.45;12.27;;;21.00;99.90;;;;;;5066996;28;19938;-53
2023/06/26 02:46:40;;;;;;;;;;;21.00;99.90;;;;;;5052486;28;20052;-52
2023/06/26 02:49:06;;;;;;;12.65;11.32;;;21.00;99.90;;;;;;5053219;28;19994;-52
2023/06/26 02:51:33;;;;;;;;;;;21.00;99.90;;;;;;5051684;28;20041;-51
2023/06/26 02:53:58;;;;;;;14.60;13.10;;;21.00;99.90;;;;;;5049050;28;20036;-52
2023/06/26 02:56:24;;;;;;;;;;;21.00;99.90;;;;;;5061331;28;20632;-52
2023/06/26 02:58:49;;;;;;;13.20;11.93;;;21.00;99.90;;;;;;5064654;28;19923;-51
2023/06/26 03:01:15;;;;;;;;;;;21.00;99.90;;;;;;5062039;28;20044;-52
2023/06/26 03:03:41;;;;;;;12.10;10.90;;;21.00;99.90;;;;;;5065616;28;19989;-52
2023/06/26 03:06:07;;;;;;;11.50;10.35;;;21.00;99.90;;;;;;5062089;28;20028;-54
2023/06/26 03:08:35;;;;;;;;;;;21.00;99.90;;;;;;5054847;28;20037;-53
2023/06/26 03:11:00;;;;;;;12.30;11.02;;;21.00;99.90;;;;;;5065985;28;19999;-53
2023/06/26 03:13:26;;;;;;;;;;;21.10;99.90;;;;;;5060967;28;20140;-51
2023/06/26 03:15:51;;;;;;;11.80;10.63;;;21.10;99.90;;;;;;5053943;28;19920;-54
2023/06/26 03:18:17;;;;;;;;;;;21.10;99.90;;;;;;5053870;28;20039;-52
2023/06/26 03:20:42;;;;;;;11.93;10.68;;;21.20;99.90;;;;;;5057268;28;20380;-51
2023/06/26 03:23:08;;;;;;;;;;;21.20;99.90;;;;;;5071534;28;20044;-52
2023/06/26 03:25:33;;;;;;;12.00;10.80;;;21.20;99.90;;;;;;5067634;28;19917;-54
2023/06/26 03:27:59;;;;;;;;;;;21.30;99.90;;;;;;5067422;28;20033;-54
2023/06/26 03:30:24;;;;;;;13.40;12.20;;;21.30;99.90;;;;;;5068811;28;19963;-51
2023/06/26 03:32:50;;;;;;;;;;;21.30;99.90;;;;;;5052917;28;20041;-51
2023/06/26 03:35:15;;;;;;;13.95;12.55;;;21.30;99.90;;;;;;5051261;28;19917;-53
2023/06/26 03:37:41;;;;;;;;;;;21.30;99.90;;;;;;5053726;28;20040;-51
2023/06/26 03:40:07;;;;;;;16.42;13.05;;;21.30;99.90;;;;;;5052657;28;20442;-51
2023/06/26 03:42:33;;;;;;;14.52;11.77;;;21.30;99.90;;;;;;5062041;28;20032;-51
2023/06/26 03:44:58;;;;;;;;;;;21.30;99.90;;;;;;5057985;28;20505;-52
2023/06/26 03:47:24;;;;;;;14.88;13.32;;;21.30;99.90;;;;;;5066948;28;20010;-54
2023/06/26 03:49:49;;;;;;;;;;;21.30;99.90;;;;;;5069836;28;20506;-51
2023/06/26 03:52:15;;;;;;;14.85;13.45;;;21.30;99.90;;;;;;5065727;28;19920;-52
2023/06/26 03:54:41;;;;;;;;;;;21.30;99.90;;;;;;5062378;28;20039;-52
2023/06/26 03:57:07;;;;;;;15.38;13.82;;;21.30;99.90;;;;;;5067336;28;19920;-52
2023/06/26 03:59:32;;;;;;;;;;;21.40;99.90;;;;;;5069839;28;20116;-54
2023/06/26 04:01:58;;;;;;;14.75;13.32;;;21.40;99.90;;;;;;5060255;28;19917;-54
2023/06/26 04:04:24;;;;;;;;;;;21.40;99.90;;;;;;5053696;28;20414;-51
2023/06/26 04:06:50;;;;;;;14.38;12.65;;;21.40;99.90;;;;;;5059804;28;19923;-52
2023/06/26 04:09:16;;;;;;;15.52;13.23;;;21.40;99.90;;;;;;5069342;28;20045;-52
2023/06/26 04:11:41;;;;;;;;;;;21.40;99.90;;;;;;5068444;28;20056;-52
2023/06/26 04:14:07;;;;;;;14.38;12.90;;;21.40;99.90;;;;;;5055467;28;19931;-54
2023/06/26 04:16:32;;;;;;;;;;;21.30;99.90;;;;;;5062327;28;20406;-52
2023/06/26 04:18:58;;;;;;;16.20;12.77;;;21.30;99.90;;;;;;5069628;28;20344;-55
2023/06/26 04:21:24;;;;;;;;;;;21.30;99.90;;;;;;5058157;28;20101;-52
2023/06/26 04:23:50;;;;;;;14.98;12.80;;;21.30;99.90;;;;;;5063209;28;19974;-51
2023/06/26 04:26:16;;;;;;;16.88;12.30;;;21.20;99.90;;;;;;5054680;28;20080;-51
2023/06/26 04:28:43;;;;;;;;;;;21.30;99.90;;;;;;5070015;28;20441;-52
2023/06/26 04:31:09;;;;;;;13.52;12.15;;;21.30;99.90;;;;;;5066948;28;20675;-52
2023/06/26 04:33:38;;;;;;;13.45;12.05;;;21.30;99.90;;;;;;5066537;28;20086;-54
2023/06/26 04:36:04;;;;;;;17.90;13.25;;;21.30;99.90;;;;;;5070317;28;20060;-53
2023/06/26 04:38:31;;;;;;;15.50;13.02;;;21.30;99.90;;;;;;5054474;28;20112;-52
2023/06/26 04:40:57;;;;;;;15.20;12.77;;;21.30;99.90;;;;;;5068750;28;20505;-51
2023/06/26 04:43:22;;;;;;;;;;;21.30;99.90;;;;;;5056249;28;20033;-52
2023/06/26 04:45:48;;;;;;;13.98;11.38;;;21.40;99.90;;;;;;5063962;28;19915;-54
2023/06/26 04:48:13;;;;;;;17.17;10.98;;;21.40;99.90;;;;;;5055547;28;20468;-52
2023/06/26 04:50:39;;;;;;;;;;;21.50;99.90;;;;;;5049693;28;20041;-52
2023/06/26 04:53:05;;;;;;;14.70;11.27;;;21.50;99.90;;;;;;5052412;28;19974;-52
2023/06/26 04:55:31;;;;;;;;;;;21.50;99.90;;;;;;5049562;28;20462;-51
2023/06/26 04:57:56;;;;;;;19.08;11.23;;;21.50;99.90;;;;;;5062491;28;19974;-54
2023/06/26 05:00:22;;;;;;;;;;;21.50;99.90;;;;;;5071733;28;20112;-51
2023/06/26 05:02:48;;;;;;;13.60;9.82;;;21.50;99.90;;;;;;5063221;28;19916;-51
2023/06/26 05:05:13;;;;;;;14.07;9.10;;;21.60;99.90;;;;;;5050741;28;20029;-51
2023/06/26 05:07:41;;;;;;;11.77;8.95;;;21.60;99.90;;;;;;5057024;28;20120;-52
2023/06/26 05:10:07;;;;;;;14.82;7.85;;;21.70;99.90;;;;;;5056025;28;20037;-55
2023/06/26 05:12:33;;;;;;;;;;;21.70;99.90;;;;;;5057093;28;20319;-54
2023/06/26 05:14:58;;;;;;;8.65;6.93;;;21.80;99.90;;;;;;5051826;28;20294;-54
2023/06/26 05:17:24;;;;;;;;;;;21.90;99.90;;;;;;5059186;28;20041;-52
2023/06/26 05:19:49;;;;;;;12.40;6.20;;;22.00;99.90;;;;;;5049984;28;20275;-53
2023/06/26 05:22:17;;;;;;;12.25;6.22;;;21.90;99.90;;;;;;5051844;28;20029;-54
2023/06/26 05:24:46;;;;;;;17.23;7.03;;;21.90;99.90;;;;;;5066830;28;20071;-53
2023/06/26 05:27:19;;;;;;;15.75;6.45;;;21.80;99.90;;;;;;5068943;28;20434;-53
2023/06/26 05:29:45;;;;;;;15.45;6.40;;;21.70;99.90;;;;;;5065667;28;20045;-52
2023/06/26 05:32:13;;;;;;;;;;;21.60;99.90;;;;;;5067099;28;20085;-52
2023/06/26 05:34:39;;;;;;;13.40;6.95;;;21.60;99.90;;;;;;5053020;28;20015;-52
2023/06/26 05:37:06;;;;;;;9.35;5.80;;;21.50;99.90;;;;;;5067826;28;20528;-52
2023/06/26 05:39:32;;;;;;;15.63;7.50;;;21.50;99.90;;;;;;5051846;28;20136;-52
2023/06/26 05:41:58;;;;;;;;;;;21.50;99.90;;;;;;5051816;28;20112;-54
2023/06/26 05:44:23;;;;;;;12.63;6.93;;;21.50;99.90;;;;;;5060303;28;20006;-52
2023/06/26 05:46:49;;;;;;;;;;;21.50;99.90;;;;;;5061000;28;20041;-52
2023/06/26 05:49:14;;;;;;;12.88;7.57;;;21.50;99.90;;;;;;5064725;28;19925;-51
2023/06/26 05:51:40;;;;;;;13.98;7.32;;;21.50;99.90;;;;;;5052443;28;20047;-52
2023/06/26 05:54:06;;;;;;;;;;;21.40;99.90;;;;;;5054418;28;20044;-54
2023/06/26 05:56:33;;;;;;;23.60;8.02;;;21.40;99.90;;;;;;5057973;28;19927;-51
2023/06/26 05:58:58;;;;;;;25.83;8.18;;;21.40;99.90;;;;;;5053682;28;20472;-52
2023/06/26 06:01:24;;;;;;;;;;;21.40;99.90;;;;;;5058604;28;20124;-54
2023/06/26 06:03:50;;;;;;;16.27;8.85;;;21.40;99.90;;;;;;5064529;28;20003;-53
2023/06/26 06:06:15;;;;;;;;;;;21.40;99.90;;;;;;5051390;28;20120;-51
2023/06/26 06:08:42;;;;;;;14.65;6.75;;;21.40;99.90;;;;;;5050665;28;19935;-52
2023/06/26 06:11:07;;;;;;;12.40;7.13;;;21.40;99.90;;;;;;5062272;28;20036;-52
2023/06/26 06:13:33;;;;;;;;;;;21.50;99.90;;;;;;5063644;28;20045;-52
2023/06/26 06:15:58;;;;;;;11.70;7.47;;;21.60;99.90;;;;;;5052334;28;20329;-56
2023/06/26 06:18:24;;;;;;;;;;;21.60;99.90;;;;;;5056138;28;20510;-53
2023/06/26 06:20:49;;;;;;;8.00;5.80;;;21.60;99.90;;;;;;5058938;28;19916;-51
2023/06/26 06:23:15;;;;;;;11.23;6.15;;;21.70;99.90;;;;;;5062856;28;20036;-51
2023/06/26 06:25:40;;;;;;;;;;;21.80;99.90;;;;;;5052289;28;20098;-54
2023/06/26 06:28:06;;;;;;;10.30;6.30;;;21.90;99.90;;;;;;5054822;28;19920;-53
2023/06/26 06:30:31;;;;;;;;;;;21.90;99.90;;;;;;5057039;28;20130;-53
2023/06/26 06:32:58;;;;;;;9.30;5.63;;;21.90;99.90;;;;;;5059110;28;19966;-52
2023/06/26 06:35:23;;;;;;;11.60;5.85;;;21.90;99.90;;;;;;5058812;28;20036;-52
2023/06/26 06:37:49;;;;;;;;;;;21.90;99.90;;;;;;5063129;28;20054;-56
2023/06/26 06:40:15;;;;;;;10.38;5.68;;;21.90;99.90;;;;;;5057456;28;19924;-52
2023/06/26 06:42:41;;;;;;;7.93;5.05;;;21.80;99.90;;;;;;5054489;28;20037;-51
2023/06/26 06:45:06;;;;;;;;;;;21.70;99.90;;;;;;5057420;28;20044;-51
2023/06/26 06:47:33;;;;;;;6.07;3.20;;;21.70;99.90;;;;;;5058249;28;19920;-51
2023/06/26 06:50:01;;;;;;;5.45;3.33;;;21.70;99.90;;;;;;5058584;28;20032;-51
2023/06/26 06:52:27;;;;;;;9.75;2.80;;;21.70;99.90;;;;;;5063145;28;20025;-51
2023/06/26 06:54:54;;;;;;;;;;;21.70;99.90;;;;;;5059519;28;20033;-54
2023/06/26 06:57:21;;;;;;;7.72;2.20;;;21.80;99.90;;;;;;5054630;28;19927;-54
2023/06/26 06:59:47;;;;;;;4.65;2.10;;;21.90;99.90;;;;;;5061085;28;20482;-54
2023/06/26 07:02:13;;;;;;;5.43;1.85;;;22.10;99.90;;;;;;5059853;28;20398;-53
2023/06/26 07:04:39;;;;;;;3.30;1.35;;;22.20;99.90;;;;;;5063256;28;20029;-52
2023/06/26 07:07:04;;;;;;;;;;;22.30;99.90;;;;;;5063078;28;20154;-52
2023/06/26 07:09:30;;;;;;;8.82;1.33;;;22.40;99.90;;;;;;5056309;28;19916;-52
2023/06/26 07:11:55;;;;;;;5.18;0.90;;;22.60;99.90;;;;;;5061853;28;20087;-51
2023/06/26 07:14:21;;;;;;;2.95;0.80;;;22.70;99.90;;;;;;5060478;28;20031;-53
2023/06/26 07:16:46;;;;;;;4.03;0.80;;;22.80;99.90;;;;;;5059265;28;20576;-52
2023/06/26 07:19:12;;;;;;;2.28;0.55;;;22.90;99.50;;;;;;5057463;28;20378;-52
2023/06/26 07:21:37;;;;;;;3.08;0.68;;;23.10;98.70;;;;;;5065514;28;20081;-51
2023/06/26 07:24:03;;;;;;;3.97;0.82;;;23.20;98.10;;;;;;5064243;28;20086;-56
2023/06/26 07:26:29;;;;;;;4.00;0.50;;;23.20;98.00;;;;;;5049829;28;20064;-54
2023/06/26 07:28:56;;;;;;;6.22;0.80;;;23.40;97.70;;;;;;5057327;28;20055;-53
2023/06/26 07:31:22;;;;;;;3.90;0.90;;;23.50;97.30;;;;;;5054258;28;20126;-53
2023/06/26 07:33:47;;;;;;;3.08;0.70;;;23.50;96.90;;;;;;5045387;28;20541;-56
2023/06/26 07:36:13;;;;;;;5.35;0.75;;;23.40;97.00;;;;;;5047861;28;20024;-52
2023/06/26 07:38:38;;;;;;;9.10;1.52;;;23.30;97.10;;;;;;5056504;28;20044;-52
2023/06/26 07:41:04;;;;;;;5.82;1.17;;;23.30;97.20;;;;;;5057788;28;20032;-53
2023/06/26 07:43:30;;;;;;;3.22;0.93;;;23.40;97.40;;;;;;5055733;28;20044;-52
2023/06/26 07:45:58;;;;;;;4.88;0.80;;;23.40;97.30;;;;;;5060313;28;20033;-51
2023/06/26 07:48:24;;;;;;;3.83;1.25;;;23.50;97.70;;;;;;5057424;28;20603;-54
2023/06/26 07:50:50;;;;;;;2.90;1.10;;;23.50;97.70;;;;;;5058416;28;20068;-52
2023/06/26 07:53:16;;;;;;;3.47;1.33;;;23.50;97.60;;;;;;5056576;28;20260;-52
2023/06/26 07:55:41;;;;;;;4.05;1.30;;;23.40;97.10;;;;;;5057337;28;20048;-53
2023/06/26 07:58:08;;;;;;;3.50;0.90;;;23.30;97.60;;;;;;5060245;28;20033;-51
2023/06/26 08:00:33;;;;;;;3.20;0.85;;;23.30;97.80;;;;;;5061766;28;20043;-55
2023/06/26 08:02:59;;;;;;;5.53;1.05;;;23.20;97.60;;;;;;5060528;28;20040;-55
2023/06/26 08:05:25;;;;;;;7.25;1.58;;;23.20;97.80;;;;;;5061285;28;20100;-49
2023/06/26 08:07:50;;;;;;;6.43;1.17;;;23.30;97.80;;;;;;5058658;28;20048;-49
2023/06/26 08:10:16;;;;;;;3.97;1.15;;;23.40;97.80;;;;;;5060562;28;20048;-51
2023/06/26 08:12:44;;;;;;;3.88;0.77;;;23.50;97.60;;;;;;5058921;28;20041;-49
2023/06/26 08:15:11;;;;;;;3.72;0.60;;;23.50;97.80;;;;;;5055789;28;20044;-55
2023/06/26 08:17:37;;;;;;;6.80;0.75;;;23.60;97.60;;;;;;5058235;28;20047;-49
2023/06/26 08:20:04;;;;;;;5.63;1.00;;;23.70;97.00;;;;;;5058791;28;20616;-50
2023/06/26 08:22:30;;;;;;;3.38;1.30;;;23.70;96.60;;;;;;5056839;28;20967;-51
2023/06/26 08:24:56;;;;;;;3.92;0.68;;;23.50;96.30;;;;;;5057503;28;20048;-49
2023/06/26 08:27:22;;;;;;;2.83;0.60;;;23.40;96.90;;;;;;5061024;28;20694;-50
2023/06/26 08:29:47;;;;;;;3.85;0.68;;;23.50;96.90;;;;;;5057294;28;20052;-49
2023/06/26 08:32:13;;;;;;;3.08;0.63;;;23.70;96.50;;;;;;5062426;28;20501;-50
2023/06/26 08:34:39;;;;;;;6.75;0.40;;;23.80;95.90;;;;;;5058728;28;20052;-52
2023/06/26 08:37:04;;;;;;;4.45;0.60;;;24.00;96.00;;;;;;5058146;28;20041;-52
2023/06/26 08:39:30;;;;;;;4.50;0.70;;;24.20;96.00;;;;;;5058242;28;20047;-50
2023/06/26 08:41:56;;;;;;;1.77;0.40;;;24.20;95.00;;;;;;5057334;28;20044;-52
2023/06/26 08:44:24;;;;;;;6.70;0.50;;;24.20;94.90;;;;;;5055023;28;20368;-51
2023/06/26 08:46:51;;;;;;;4.10;0.80;;;24.10;94.70;;;;;;5057665;28;20116;-51
2023/06/26 08:49:48;;;;;;;3.08;0.50;;;24.00;94.80;;;;;;5061125;28;20041;-50
2023/06/26 08:52:17;;;;;;;;;;;23.90;94.60;;;;;;5046672;28;20052;-53
2023/06/26 08:54:50;;;;;;;1.60;0.57;;;24.00;94.80;;;;;;5051204;28;19989;-50
2023/06/26 08:57:19;;;;;;;2.40;0.85;;;24.10;95.00;;;;;;5057653;28;20043;-52
2023/06/26 08:59:46;;;;;;;2.80;0.70;;;24.10;94.70;;;;;;5053682;28;20455;-52
2023/06/26 09:02:12;;;;;;;2.78;0.60;;;24.20;94.80;;;;;;5058013;28;20035;-51
2023/06/26 09:04:38;;;;;;;2.65;0.82;;;24.10;94.30;;;;;;5055158;28;20393;-52
2023/06/26 09:07:04;;;;;;;5.03;0.70;;;24.00;94.60;;;;;;5057406;28;20094;-53
2023/06/26 09:09:30;;;;;;;4.20;0.77;;;23.90;94.60;;;;;;5056369;28;20402;-53
2023/06/26 09:11:55;;;;;;;1.50;0.50;;;24.00;94.40;;;;;;5055017;28;20124;-50
2023/06/26 09:14:21;;;;;;;7.28;0.68;;;24.10;94.80;;;;;;5053761;28;20068;-54
2023/06/26 09:16:47;;;;;;;5.97;0.75;;;24.20;94.10;;;;;;5052551;28;20048;-49
2023/06/26 09:19:13;;;;;;;1.50;0.90;;;24.00;94.10;;;;;;5052043;28;20041;-52
2023/06/26 09:21:40;;;;;;;1.45;0.50;;;23.80;94.40;;;;;;5054939;28;20083;-49
2023/06/26 09:24:07;;;;;;;1.60;0.68;;;23.90;95.00;;;;;;5052972;28;20515;-50
2023/06/26 09:26:35;;;;;;;1.67;0.50;;;24.00;94.70;;;;;;5049747;28;20063;-49
2023/06/26 09:29:01;;;;;;;2.25;0.70;;;24.20;94.60;;;;;;5050865;28;21393;-50
2023/06/26 09:31:26;;;;;;;9.65;1.40;;;24.30;94.00;;;;;;5055732;28;20036;-52
2023/06/26 09:33:59;;;;;;;3.53;0.95;;;24.30;94.50;;;;;;5051242;28;20040;-53
2023/06/26 09:36:28;;;;;;;3.67;0.80;;;24.40;94.50;;;;;;5054378;28;20033;-49
2023/06/26 09:38:54;;;;;;;4.18;0.73;;;24.60;94.20;;;;;;5050862;28;20131;-50
2023/06/26 09:41:20;;;;;;;1.45;0.80;;;24.70;94.10;;;;;;5058899;28;20116;-49
2023/06/26 09:43:46;;;;;;;2.70;0.70;;;24.80;94.30;;;;;;5052876;28;20071;-49
2023/06/26 09:46:28;;;;;;;4.15;0.85;;;24.80;93.60;;;;;;5060733;28;20033;-49
2023/06/26 09:49:04;;;;;;;3.83;0.88;;;24.70;94.10;;;;;;5061014;28;20591;-49
2023/06/26 09:51:34;;;;;;;0.98;0.70;;;24.80;92.80;;;;;;5055601;28;20032;-51
2023/06/26 09:54:01;;;;;;;2.17;0.77;;;24.80;93.80;;;;;;5055044;28;20098;-52
2023/06/26 09:56:28;;;;;;;8.02;0.93;;;24.70;92.20;;;;;;5054672;28;20037;-49
2023/06/26 09:58:57;;;;;;;9.45;1.45;;;24.40;92.40;;;;;;5055812;28;20041;-52
2023/06/26 10:01:23;;;;;;;2.78;1.00;;;24.20;92.60;;;;;;5054371;28;20059;-49
2023/06/26 10:03:49;;;;;;;5.45;1.33;;;24.40;93.60;;;;;;5054655;28;20041;-49
2023/06/26 10:06:19;;;;;;;7.13;1.30;;;24.70;93.30;;;;;;5059575;28;20115;-49
2023/06/26 10:08:46;;;;;;;4.82;1.20;;;24.80;92.60;;;;;;5059054;28;20127;-49
2023/06/26 10:11:15;;;;;;;2.33;1.23;;;24.70;92.50;;;;;;5059250;28;20105;-49
2023/06/26 10:13:46;;;;;;;4.40;1.00;;;24.40;91.90;;;;;;5066304;28;20028;-49
2023/06/26 10:16:12;;;;;;;3.10;0.70;;;24.40;92.80;;;;;;5066430;28;20044;-49
2023/06/26 10:18:40;;;;;;;3.28;1.10;;;24.40;92.90;;;;;;5054478;28;20032;-57
2023/06/26 10:21:08;;;;;;;3.13;1.00;;;24.60;92.20;;;;;;5056024;28;20402;-51
2023/06/26 10:23:36;;;;;;;4.88;0.82;;;24.60;91.60;;;;;;5056800;28;20044;-53
2023/06/26 10:26:01;;;;;;;6.13;0.80;;;24.60;91.20;;;;;;5063795;28;20047;-51
2023/06/26 10:28:30;;;;;;;2.38;1.00;;;24.50;91.50;;;;;;5055198;28;20037;-51
2023/06/26 10:30:56;;;;;;;7.53;0.90;;;24.60;92.30;;;;;;5062686;28;20445;-52
2023/06/26 10:33:22;;;;;;;7.35;1.00;;;24.80;91.40;;;;;;5054543;28;20036;-51
2023/06/26 10:35:49;;;;;;;2.13;1.05;;;24.90;90.50;;;;;;5056169;28;20046;-52
2023/06/26 10:38:14;;;;;;;5.45;0.95;;;25.00;90.60;;;;;;5061746;28;20036;-53
2023/06/26 10:40:48;;;;;;;3.15;1.00;;;25.20;91.10;;;;;;5065110;28;20032;-51
2023/06/26 10:43:15;;;;;;;8.25;0.90;;;25.40;90.90;;;;;;5059544;28;20086;-51
2023/06/26 10:45:53;;;;;;;3.10;1.20;;;25.50;90.40;;;;;;5051945;28;20029;-54
2023/06/26 10:48:19;;;;;;;5.28;1.30;;;25.70;90.50;;;;;;5054398;28;20037;-53
2023/06/26 10:50:48;;;;;;;5.88;0.90;;;25.80;90.00;;;;;;5055620;28;20040;-54
2023/06/26 10:53:34;;;;;;;6.65;0.77;;;25.70;85.40;;;;;;5060214;28;20632;-51
2023/06/26 10:56:04;;;;;;;15.45;0.63;;;25.50;84.20;;;;;;5063943;28;20075;-53
2023/06/26 10:58:47;;;;;;;6.15;0.50;;;25.20;81.70;;;;;;5053215;28;20051;-51
2023/06/26 11:01:22;;;;;;;5.43;0.60;;;25.10;80.70;;;;;;5060776;28;20048;-53
2023/06/26 11:04:05;;;;;;;6.05;0.52;;;24.90;82.20;;;;;;5054098;28;20037;-51
2023/06/26 11:06:32;;;;;;;3.50;0.82;;;24.80;83.60;;;;;;5049645;28;20033;-55
2023/06/26 11:09:08;;;;;;;9.35;0.93;;;24.80;83.90;;;;;;5059248;28;20060;-51
2023/06/26 11:11:54;;;;;;;4.82;0.55;;;25.00;84.90;;;;;;5050084;28;20490;-54
2023/06/26 11:14:22;;;;;;;5.05;0.40;;;25.00;83.60;;;;;;5057876;28;20049;-53
2023/06/26 11:16:48;;;;;;;4.30;0.60;;;25.00;83.30;;;;;;5056112;28;20041;-54
2023/06/26 11:19:16;;;;;;;1.65;0.35;;;25.10;82.70;;;;;;5056141;28;20033;-52
2023/06/26 11:21:42;;;;;;;2.47;0.65;;;25.00;80.30;;;;;;5062211;28;20050;-53
2023/06/26 11:24:08;;;;;;;5.03;0.40;;;25.00;80.10;;;;;;5062334;28;20045;-51
2023/06/26 11:26:44;;;;;;;3.45;0.90;;;25.10;82.70;;;;;;5053664;28;20140;-51
2023/06/26 11:29:11;;;;;;;10.63;0.88;;;25.10;80.50;;;;;;5060290;28;20492;-53
2023/06/26 11:31:38;;;;;;;17.10;1.33;;;25.10;82.80;;;;;;5053143;28;20032;-51
2023/06/26 11:34:07;;;;;;;4.82;0.47;;;25.20;82.00;;;;;;5059294;28;20601;-54
2023/06/26 11:36:37;;;;;;;2.30;0.50;;;25.30;81.10;;;;;;5052400;28;20033;-54
2023/06/26 11:39:07;;;;;;;5.15;0.70;;;25.50;81.20;;;;;;5053836;28;20509;-53
2023/06/26 11:41:37;;;;;;;1.90;0.50;;;25.70;81.80;;;;;;5052717;28;20033;-51
2023/06/26 11:44:04;;;;;;;4.03;0.80;;;25.70;80.90;;;;;;5062336;28;20028;-51
2023/06/26 11:46:31;;;;;;;7.20;1.35;;;25.60;79.20;;;;;;5067444;28;20047;-51
2023/06/26 11:48:56;;;;;;;6.47;0.90;;;25.20;80.80;;;;;;5066497;28;20033;-53
2023/06/26 11:51:22;;;;;;;4.28;0.63;;;24.90;77.90;;;;;;5070384;28;20101;-51
2023/06/26 11:53:48;;;;;;;5.15;1.08;;;24.70;77.90;;;;;;5058933;28;20036;-51
2023/06/26 11:56:16;;;;;;;2.70;0.60;;;24.50;77.60;;;;;;5065323;28;20036;-52
2023/06/26 11:59:08;;;;;;;6.78;0.75;;;24.50;81.40;;;;;;5051646;28;20069;-51
2023/06/26 12:01:41;;;;;;;2.47;0.65;;;24.60;82.50;;;;;;5050965;28;20490;-51
2023/06/26 12:04:09;;;;;;;3.60;0.43;;;24.60;81.80;;;;;;5047440;28;20036;-51
2023/06/26 12:06:37;;;;;;;8.00;1.10;;;24.70;80.60;;;;;;5060037;28;20332;-51
2023/06/26 12:09:11;;;;;;;2.97;0.47;;;24.80;79.70;;;;;;5053936;28;20045;-51
2023/06/26 12:11:44;;;;;;;3.78;0.77;;;25.10;79.20;;;;;;5054075;28;20090;-52
2023/06/26 12:14:11;;;;;;;7.32;0.50;;;25.30;80.00;;;;;;5057477;28;20146;-54
2023/06/26 12:16:39;;;;;;;3.75;0.50;;;25.20;78.20;;;;;;5057094;28;20044;-51
2023/06/26 12:19:06;;;;;;;5.78;0.52;;;25.00;79.60;;;;;;5059902;28;20492;-53
2023/06/26 12:21:37;;;;;;;2.15;0.50;;;24.70;78.90;;;;;;5057192;28;20032;-53
2023/06/26 12:24:07;;;;;;;4.47;0.43;;;24.30;78.30;;;;;;5062715;28;20520;-52
2023/06/26 12:26:33;;;;;;;2.25;0.30;;;24.10;80.00;;;;;;5053383;28;20136;-51
2023/06/26 12:29:07;;;;;;;3.90;0.60;;;24.20;80.20;;;;;;5059561;28;20055;-52
2023/06/26 12:31:33;;;;;;;3.90;0.43;;;24.40;80.00;;;;;;5061292;28;20064;-51
2023/06/26 12:33:59;;;;;;;3.17;0.30;;;24.60;79.90;;;;;;5061180;28;20041;-53
2023/06/26 12:36:25;;;;;;;1.02;0.43;;;24.60;81.60;;;;;;5063381;28;20472;-54
2023/06/26 12:38:53;;;;;;;6.78;0.50;;;24.60;81.10;;;;;;5061226;28;20036;-53
2023/06/26 12:41:20;;;;;;;5.95;0.38;;;24.90;79.90;;;;;;5055679;28;20039;-51
2023/06/26 12:43:46;;;;;;;6.22;0.45;;;25.00;77.60;;;;;;5053102;28;20510;-53
2023/06/26 12:46:12;;;;;;;1.90;0.50;;;24.80;79.00;;;;;;5064900;28;20035;-54
2023/06/26 12:48:46;;;;;;;3.55;0.40;;;24.80;81.00;;;;;;5057083;28;20037;-51
2023/06/26 12:51:16;;;;;;;6.35;0.45;;;25.00;79.90;;;;;;5066792;28;20078;-55
2023/06/26 12:53:42;;;;;;;2.35;0.50;;;25.20;79.60;;;;;;5067987;28;20051;-51
2023/06/26 12:56:11;;;;;;;3.58;0.40;;;25.20;78.80;;;;;;5056986;28;20428;-51